Time;durP1;ratioP1;P1;durP2;ratioP2;P2;SDS_P1;SDS_P2;PMS_P1;PMS_P2;Temp;Humidity;BMP_temperature;BMP_pressure;BME280_temperature;BME280_humidity;BME280_pressure;Samples;Min_cycle;Max_cycle;Signal;HPM_P1;HPM_P2
2023/02/22 00:00:18;;;;;;;7.32;4.97;;;;;;;;;;5029061;28;20057;-82
2023/02/22 00:02:44;;;;;;;7.60;4.88;;;;;;;;;;5018990;28;20030;-82
2023/02/22 00:05:10;;;;;;;8.52;5.28;;;;;;;;;;5047791;28;20403;-83
2023/02/22 00:07:36;;;;;;;9.32;4.43;;;;;;;;;;5035560;28;20079;-83
2023/02/22 00:10:02;;;;;;;7.70;4.78;;;;;;;;;;5039036;28;20026;-83
2023/02/22 00:12:28;;;;;;;9.00;4.75;;;;;;;;;;5038402;28;20025;-82
2023/02/22 00:14:54;;;;;;;8.02;5.00;;;;;;;;;;5038039;28;20060;-81
2023/02/22 00:17:20;;;;;;;10.73;5.45;;;;;;;;;;5038717;28;20041;-82
2023/02/22 00:19:48;;;;;;;8.07;5.30;;;;;;;;;;5038012;28;20026;-83
2023/02/22 00:22:17;;;;;;;8.13;5.15;;;;;;;;;;5038595;28;20104;-81
2023/02/22 00:24:43;;;;;;;6.75;4.80;;;;;;;;;;5045180;28;20033;-82
2023/02/22 00:30:25;;;;;;;8.95;5.22;;;;;;;;;;5023216;28;20036;-83
2023/02/22 00:32:52;;;;;;;7.85;4.72;;;;;;;;;;5038389;28;20025;-82
2023/02/22 00:35:19;;;;;;;9.27;5.78;;;;;;;;;;5037087;28;20048;-84
2023/02/22 00:37:49;;;;;;;7.75;5.03;;;;;;;;;;5041506;28;20108;-84
2023/02/22 00:40:17;;;;;;;8.18;5.10;;;;;;;;;;5045828;28;20025;-82
2023/02/22 00:42:45;;;;;;;9.32;6.35;;;;;;;;;;5036147;28;20390;-82
2023/02/22 00:45:12;;;;;;;8.48;4.90;;;;;;;;;;5037329;28;20028;-83
2023/02/22 00:47:38;;;;;;;8.73;4.88;;;;;;;;;;5038026;28;20045;-83
2023/02/22 00:50:04;;;;;;;8.80;5.50;;;;;;;;;;5037455;28;20403;-81
2023/02/22 00:52:30;;;;;;;7.85;4.93;;;;;;;;;;5036101;28;20036;-81
2023/02/22 00:54:57;;;;;;;8.57;5.13;;;;;;;;;;5035677;28;20475;-81
2023/02/22 00:57:23;;;;;;;7.95;4.70;;;;;;;;;;5037127;28;20478;-82
2023/02/22 00:59:49;;;;;;;8.13;4.40;;;;;;;;;;5036673;28;20040;-82
2023/02/22 01:02:16;;;;;;;8.68;4.95;;;;;;;;;;5040172;28;20017;-81
2023/02/22 01:04:42;;;;;;;6.32;4.13;;;;;;;;;;5047720;28;20034;-82
2023/02/22 01:07:08;;;;;;;7.85;4.75;;;;;;;;;;5036487;28;20046;-82
2023/02/22 01:09:34;;;;;;;7.93;4.88;;;;;;;;;;5036594;28;20475;-81
2023/02/22 01:12:01;;;;;;;7.00;4.40;;;;;;;;;;5049505;28;20029;-82
2023/02/22 01:14:27;;;;;;;6.68;3.97;;;;;;;;;;5037798;28;20022;-82
2023/02/22 01:16:54;;;;;;;8.13;3.90;;;;;;;;;;5056216;28;20033;-82
2023/02/22 01:19:20;;;;;;;6.63;4.30;;;;;;;;;;5040244;28;20494;-82
2023/02/22 01:21:47;;;;;;;8.90;4.47;;;;;;;;;;5035204;28;20037;-82
2023/02/22 01:24:15;;;;;;;8.38;4.00;;;;;;;;;;5036235;28;20047;-82
2023/02/22 01:26:42;;;;;;;9.23;4.40;;;;;;;;;;5037605;28;20475;-81
2023/02/22 01:29:08;;;;;;;6.93;3.88;;;;;;;;;;5045155;28;20493;-81
2023/02/22 01:31:35;;;;;;;6.50;4.45;;;;;;;;;;5051118;28;20059;-82
2023/02/22 01:34:00;;;;;;;7.05;4.00;;;;;;;;;;5035955;28;20026;-82
2023/02/22 01:36:27;;;;;;;7.75;4.13;;;;;;;;;;5035223;28;20032;-82
2023/02/22 01:38:52;;;;;;;5.47;3.45;;;;;;;;;;5037508;28;20351;-81
2023/02/22 01:41:18;;;;;;;5.93;3.58;;;;;;;;;;5036999;28;20510;-79
2023/02/22 01:43:44;;;;;;;6.88;3.90;;;;;;;;;;5034258;28;20036;-81
2023/02/22 01:46:20;;;;;;;7.40;3.97;;;;;;;;;;5036993;28;20026;-82
2023/02/22 01:48:46;;;;;;;7.50;3.90;;;;;;;;;;5034939;28;20060;-83
2023/02/22 01:51:36;;;;;;;8.38;4.05;;;;;;;;;;5023288;28;20034;-82
2023/02/22 01:54:15;;;;;;;7.38;4.40;;;;;;;;;;5044400;28;20018;-82
2023/02/22 01:56:46;;;;;;;7.13;3.70;;;;;;;;;;5036035;28;20029;-82
2023/02/22 01:59:12;;;;;;;5.90;3.83;;;;;;;;;;5034591;28;20029;-82
2023/02/22 02:01:41;;;;;;;6.05;3.67;;;;;;;;;;5034999;28;20033;-83
2023/02/22 02:04:10;;;;;;;7.15;4.10;;;;;;;;;;5035521;28;20390;-82
2023/02/22 02:06:37;;;;;;;6.63;3.53;;;;;;;;;;5035981;28;20128;-82
2023/02/22 02:09:13;;;;;;;7.22;4.10;;;;;;;;;;5048042;28;20037;-81
2023/02/22 02:11:40;;;;;;;8.70;4.47;;;;;;;;;;5036032;28;20079;-83
2023/02/22 02:14:07;;;;;;;7.55;4.88;;;;;;;;;;5035431;28;20053;-82
2023/02/22 02:16:55;;;;;;;7.95;4.75;;;;;;;;;;5036459;28;20040;-81
2023/02/22 02:19:23;;;;;;;8.10;5.03;;;;;;;;;;5048344;28;20029;-81
2023/02/22 02:22:01;;;;;;;7.63;4.70;;;;;;;;;;5034339;28;20116;-82
2023/02/22 02:24:38;;;;;;;7.65;4.72;;;;;;;;;;5035428;28;20511;-81
2023/02/22 02:27:12;;;;;;;9.23;5.18;;;;;;;;;;5028137;28;20064;-80
2023/02/22 02:29:50;;;;;;;7.38;5.05;;;;;;;;;;5034405;28;20028;-82
2023/02/22 02:32:36;;;;;;;8.82;4.75;;;;;;;;;;5034369;28;20032;-82
2023/02/22 02:35:21;;;;;;;6.97;4.75;;;;;;;;;;5035990;28;20031;-81
2023/02/22 02:37:47;;;;;;;9.60;5.15;;;;;;;;;;5043526;28;20036;-81
2023/02/22 02:40:36;;;;;;;8.55;4.82;;;;;;;;;;5034943;28;20013;-82
2023/02/22 02:43:08;;;;;;;8.77;4.63;;;;;;;;;;5032762;28;20075;-82
2023/02/22 02:45:45;;;;;;;7.32;4.97;;;;;;;;;;5034267;28;20041;-82
2023/02/22 02:48:12;;;;;;;7.20;4.28;;;;;;;;;;5034257;28;20032;-81
2023/02/22 02:50:46;;;;;;;6.80;4.25;;;;;;;;;;5034770;28;20506;-80
2023/02/22 02:53:13;;;;;;;8.02;4.53;;;;;;;;;;5037903;28;20064;-80
2023/02/22 02:55:39;;;;;;;7.40;4.15;;;;;;;;;;5034336;28;20074;-81
2023/02/22 02:58:06;;;;;;;8.20;4.65;;;;;;;;;;5040386;28;20067;-80
2023/02/22 03:00:38;;;;;;;6.55;4.15;;;;;;;;;;5053888;28;20029;-81
2023/02/22 03:03:07;;;;;;;7.32;4.60;;;;;;;;;;5032126;28;20033;-80
2023/02/22 03:05:51;;;;;;;7.35;3.85;;;;;;;;;;5032698;28;20046;-80
2023/02/22 03:08:23;;;;;;;9.05;4.05;;;;;;;;;;5035734;28;20427;-81
2023/02/22 03:10:52;;;;;;;7.28;4.50;;;;;;;;;;5036876;28;20502;-81
2023/02/22 03:13:37;;;;;;;7.05;3.90;;;;;;;;;;5035064;28;20055;-80
2023/02/22 03:16:29;;;;;;;6.43;4.28;;;;;;;;;;5033859;28;20029;-80
2023/02/22 03:18:57;;;;;;;7.82;3.72;;;;;;;;;;5014461;28;20045;-80
2023/02/22 03:21:28;;;;;;;7.72;4.43;;;;;;;;;;5021878;28;20020;-80
2023/02/22 03:23:54;;;;;;;8.32;4.03;;;;;;;;;;5035313;28;20495;-80
2023/02/22 03:26:44;;;;;;;7.50;4.57;;;;;;;;;;5030544;28;20044;-79
2023/02/22 03:29:11;;;;;;;6.68;3.80;;;;;;;;;;5031546;28;20487;-80
2023/02/22 03:31:42;;;;;;;5.95;3.80;;;;;;;;;;5035007;28;20099;-80
2023/02/22 03:34:13;;;;;;;6.80;4.00;;;;;;;;;;5033249;28;20056;-81
2023/02/22 03:36:42;;;;;;;7.30;4.53;;;;;;;;;;5033573;28;20079;-79
2023/02/22 03:39:14;;;;;;;7.18;4.38;;;;;;;;;;5053313;28;20033;-81
2023/02/22 03:41:43;;;;;;;7.47;4.25;;;;;;;;;;5041193;28;20067;-80
2023/02/22 03:44:11;;;;;;;6.68;3.95;;;;;;;;;;5032133;28;20034;-81
2023/02/22 03:46:42;;;;;;;6.38;4.00;;;;;;;;;;5034186;28;20058;-81
2023/02/22 03:49:21;;;;;;;8.25;4.53;;;;;;;;;;5034714;28;20033;-79
2023/02/22 03:51:47;;;;;;;7.32;4.10;;;;;;;;;;5033387;28;20029;-81
2023/02/22 03:54:15;;;;;;;7.25;4.25;;;;;;;;;;5030465;28;20535;-81
2023/02/22 03:56:49;;;;;;;6.75;4.25;;;;;;;;;;5035314;28;20030;-81
2023/02/22 03:59:15;;;;;;;7.05;4.15;;;;;;;;;;5034274;28;20111;-80
2023/02/22 04:01:41;;;;;;;6.60;4.05;;;;;;;;;;5033803;28;20033;-81
2023/02/22 04:04:07;;;;;;;7.35;4.25;;;;;;;;;;5029976;28;20013;-82
2023/02/22 04:06:33;;;;;;;7.43;4.40;;;;;;;;;;5034211;28;20046;-81
2023/02/22 04:08:59;;;;;;;9.50;4.47;;;;;;;;;;5033983;28;20025;-82
2023/02/22 04:11:25;;;;;;;7.40;4.13;;;;;;;;;;5041613;28;20017;-81
2023/02/22 04:13:53;;;;;;;7.40;4.35;;;;;;;;;;5033675;28;20029;-81
2023/02/22 04:16:19;;;;;;;7.28;4.38;;;;;;;;;;5034386;28;20030;-79
2023/02/22 04:18:45;;;;;;;7.00;4.40;;;;;;;;;;5033184;28;20455;-81
2023/02/22 04:21:13;;;;;;;6.22;3.78;;;;;;;;;;5034678;28;20064;-83
2023/02/22 04:23:39;;;;;;;7.40;3.72;;;;;;;;;;5028024;28;20022;-81
2023/02/22 04:26:05;;;;;;;7.22;4.05;;;;;;;;;;5051081;28;20032;-81
2023/02/22 04:28:31;;;;;;;6.50;4.13;;;;;;;;;;5037276;28;20021;-81
2023/02/22 04:30:57;;;;;;;7.40;4.03;;;;;;;;;;5049593;28;20032;-79
2023/02/22 04:33:23;;;;;;;6.50;3.40;;;;;;;;;;5038171;28;20030;-81
2023/02/22 04:35:50;;;;;;;6.43;3.92;;;;;;;;;;5048131;28;20021;-82
2023/02/22 04:38:16;;;;;;;5.95;3.65;;;;;;;;;;5040554;28;20037;-81
2023/02/22 04:40:42;;;;;;;6.47;3.85;;;;;;;;;;5037954;28;20036;-81
2023/02/22 04:43:08;;;;;;;7.90;4.22;;;;;;;;;;5036346;28;20387;-80
2023/02/22 04:45:34;;;;;;;7.88;4.07;;;;;;;;;;5035772;28;20493;-80
2023/02/22 04:48:00;;;;;;;6.72;3.97;;;;;;;;;;5036557;28;20033;-81
2023/02/22 04:50:27;;;;;;;7.25;4.47;;;;;;;;;;5035534;28;20018;-81
2023/02/22 04:52:53;;;;;;;7.65;4.07;;;;;;;;;;5033670;28;20021;-81
2023/02/22 04:55:19;;;;;;;7.72;4.13;;;;;;;;;;5027649;28;20022;-81
2023/02/22 04:57:45;;;;;;;7.28;4.20;;;;;;;;;;5032609;28;20033;-81
2023/02/22 05:00:15;;;;;;;6.88;4.15;;;;;;;;;;5040940;28;20063;-80
2023/02/22 05:02:41;;;;;;;7.85;4.82;;;;;;;;;;5050627;28;20033;-82
2023/02/22 05:05:08;;;;;;;8.70;4.60;;;;;;;;;;5036812;28;20395;-80
2023/02/22 05:07:34;;;;;;;6.18;4.05;;;;;;;;;;5040027;28;20037;-81
2023/02/22 05:10:01;;;;;;;7.07;4.40;;;;;;;;;;5046478;28;20029;-80
2023/02/22 05:12:28;;;;;;;8.02;4.53;;;;;;;;;;5036039;28;20054;-81
2023/02/22 05:14:54;;;;;;;8.05;4.70;;;;;;;;;;5034684;28;20021;-81
2023/02/22 05:17:20;;;;;;;7.28;4.75;;;;;;;;;;5029861;28;20065;-80
2023/02/22 05:19:46;;;;;;;9.48;5.05;;;;;;;;;;5037177;28;20025;-78
2023/02/22 05:22:12;;;;;;;6.57;4.10;;;;;;;;;;5036177;28;20029;-82
2023/02/22 05:24:38;;;;;;;6.93;4.30;;;;;;;;;;5034853;28;20034;-81
2023/02/22 05:27:04;;;;;;;8.30;4.80;;;;;;;;;;5034686;28;20506;-82
2023/02/22 05:29:31;;;;;;;7.32;4.25;;;;;;;;;;5032106;28;20395;-80
2023/02/22 05:31:57;;;;;;;8.48;4.10;;;;;;;;;;5021275;28;20080;-81
2023/02/22 05:34:23;;;;;;;9.70;4.90;;;;;;;;;;5035022;28;20491;-81
2023/02/22 05:36:49;;;;;;;8.38;4.32;;;;;;;;;;5034743;28;20478;-80
2023/02/22 05:39:15;;;;;;;8.98;4.45;;;;;;;;;;5033593;28;20379;-79
2023/02/22 05:41:41;;;;;;;7.57;4.38;;;;;;;;;;5033509;28;20121;-80
2023/02/22 05:44:07;;;;;;;8.15;4.10;;;;;;;;;;5031996;28;20028;-81
2023/02/22 05:46:33;;;;;;;9.60;5.40;;;;;;;;;;5031638;28;20029;-81
2023/02/22 05:48:59;;;;;;;8.13;4.55;;;;;;;;;;5029815;28;20030;-81
2023/02/22 05:51:25;;;;;;;8.20;4.82;;;;;;;;;;5034716;28;20031;-81
2023/02/22 05:53:51;;;;;;;7.47;4.25;;;;;;;;;;5034766;28;20030;-83
2023/02/22 05:56:21;;;;;;;7.30;4.10;;;;;;;;;;5033752;28;20104;-81
2023/02/22 05:58:47;;;;;;;9.00;4.50;;;;;;;;;;5024367;28;20029;-82
2023/02/22 06:01:13;;;;;;;8.20;4.88;;;;;;;;;;5034689;28;20068;-80
2023/02/22 06:03:39;;;;;;;7.80;4.43;;;;;;;;;;5025419;28;20034;-82
2023/02/22 06:06:06;;;;;;;9.00;5.70;;;;;;;;;;5034238;28;20096;-79
2023/02/22 06:08:32;;;;;;;7.75;5.15;;;;;;;;;;5032504;28;20091;-80
2023/02/22 06:10:58;;;;;;;13.60;8.38;;;;;;;;;;5034767;28;20102;-81
2023/02/22 06:13:24;;;;;;;16.98;10.40;;;;;;;;;;5036271;28;20033;-80
2023/02/22 06:15:50;;;;;;;16.27;9.40;;;;;;;;;;5033812;28;20078;-80
2023/02/22 06:18:16;;;;;;;28.98;17.08;;;;;;;;;;5033137;28;20120;-80
2023/02/22 06:20:42;;;;;;;14.32;7.85;;;;;;;;;;5035350;28;20033;-80
2023/02/22 06:23:08;;;;;;;11.57;6.25;;;;;;;;;;5036477;28;20108;-79
2023/02/22 06:25:34;;;;;;;8.27;5.28;;;;;;;;;;5034701;28;20112;-79
2023/02/22 06:28:00;;;;;;;10.85;4.85;;;;;;;;;;5018458;28;20030;-80
2023/02/22 06:30:27;;;;;;;13.02;6.50;;;;;;;;;;5018286;28;20022;-81
2023/02/22 06:32:53;;;;;;;8.20;4.85;;;;;;;;;;5024966;28;20021;-80
2023/02/22 06:35:20;;;;;;;6.93;4.75;;;;;;;;;;5034584;28;20031;-82
2023/02/22 06:37:46;;;;;;;7.80;4.28;;;;;;;;;;5036420;28;20085;-81
2023/02/22 06:40:13;;;;;;;7.38;4.60;;;;;;;;;;5034491;28;20022;-81
2023/02/22 06:42:39;;;;;;;8.88;4.70;;;;;;;;;;5034710;28;20029;-80
2023/02/22 06:45:06;;;;;;;8.13;4.25;;;;;;;;;;5016291;28;20034;-82
2023/02/22 06:47:32;;;;;;;7.57;4.30;;;;;;;;;;5033507;28;20198;-82
2023/02/22 06:49:59;;;;;;;14.27;9.80;;;;;;;;;;5035058;28;20777;-82
2023/02/22 06:52:25;;;;;;;12.27;5.82;;;;;;;;;;5034275;28;20113;-81
2023/02/22 06:54:52;;;;;;;8.90;5.40;;;;;;;;;;5025363;28;20017;-82
2023/02/22 06:57:18;;;;;;;8.18;4.63;;;;;;;;;;5033366;28;20103;-82
2023/02/22 06:59:44;;;;;;;11.27;6.28;;;;;;;;;;5022639;28;20030;-82
2023/02/22 07:02:11;;;;;;;6.80;4.22;;;;;;;;;;5034904;28;20538;-82
2023/02/22 07:04:37;;;;;;;9.65;7.00;;;;;;;;;;5032747;28;20513;-80
2023/02/22 07:07:03;;;;;;;10.98;6.78;;;;;;;;;;5034071;28;20065;-82
2023/02/22 07:09:30;;;;;;;11.43;8.88;;;;;;;;;;5034707;28;20046;-83
2023/02/22 07:11:56;;;;;;;12.02;8.70;;;;;;;;;;5034886;28;20403;-84
2023/02/22 07:14:22;;;;;;;12.57;7.75;;;;;;;;;;5033688;28;20021;-81
2023/02/22 07:16:48;;;;;;;11.73;6.70;;;;;;;;;;5034327;28;20029;-80
2023/02/22 07:19:14;;;;;;;12.50;7.22;;;;;;;;;;5035074;28;20109;-80
2023/02/22 07:21:40;;;;;;;12.77;8.55;;;;;;;;;;5032983;28;20044;-80
2023/02/22 07:24:06;;;;;;;11.95;6.95;;;;;;;;;;5034120;28;20030;-80
2023/02/22 07:26:38;;;;;;;11.98;7.03;;;;;;;;;;5029505;28;20040;-81
2023/02/22 07:29:04;;;;;;;11.85;6.90;;;;;;;;;;5013562;28;20115;-81
2023/02/22 07:31:34;;;;;;;13.43;7.30;;;;;;;;;;5027176;28;20038;-80
2023/02/22 07:34:00;;;;;;;12.05;7.40;;;;;;;;;;5033046;28;20085;-81
2023/02/22 07:36:26;;;;;;;10.05;5.68;;;;;;;;;;5033849;28;20065;-81
2023/02/22 07:38:52;;;;;;;12.88;5.07;;;;;;;;;;5033044;28;20041;-80
2023/02/22 07:41:18;;;;;;;8.43;4.65;;;;;;;;;;5034318;28;20033;-79
2023/02/22 07:43:44;;;;;;;8.88;4.85;;;;;;;;;;5033928;28;20035;-80
2023/02/22 07:46:10;;;;;;;9.80;5.20;;;;;;;;;;5033017;28;20582;-80
2023/02/22 07:48:36;;;;;;;9.23;5.07;;;;;;;;;;5033236;28;20028;-80
2023/02/22 07:51:02;;;;;;;8.02;4.30;;;;;;;;;;5033300;28;20044;-81
2023/02/22 07:53:30;;;;;;;9.88;5.25;;;;;;;;;;5032881;28;20025;-80
2023/02/22 07:55:57;;;;;;;10.05;5.10;;;;;;;;;;5040189;28;20505;-81
2023/02/22 07:58:24;;;;;;;8.20;4.97;;;;;;;;;;5033512;28;20518;-83
2023/02/22 08:00:50;;;;;;;8.60;4.70;;;;;;;;;;5039553;28;20083;-81
2023/02/22 08:03:17;;;;;;;8.52;4.45;;;;;;;;;;5048188;28;20483;-82
2023/02/22 08:05:47;;;;;;;7.82;4.45;;;;;;;;;;5044403;28;20140;-81
2023/02/22 08:08:14;;;;;;;8.23;4.20;;;;;;;;;;5041255;28;20034;-79
2023/02/22 08:10:40;;;;;;;8.77;4.53;;;;;;;;;;5037186;28;20229;-79
2023/02/22 08:13:06;;;;;;;8.23;4.55;;;;;;;;;;5036559;28;20044;-82
2023/02/22 08:15:34;;;;;;;8.40;4.25;;;;;;;;;;5035674;28;20068;-81
2023/02/22 08:18:01;;;;;;;9.90;5.43;;;;;;;;;;5039063;28;20026;-79
2023/02/22 08:20:27;;;;;;;9.82;5.05;;;;;;;;;;5037699;28;20053;-82
2023/02/22 08:22:54;;;;;;;10.02;4.93;;;;;;;;;;5038873;28;20041;-82
2023/02/22 08:25:21;;;;;;;12.05;5.85;;;;;;;;;;5037986;28;20029;-81
2023/02/22 08:27:47;;;;;;;9.05;5.28;;;;;;;;;;5037613;28;20034;-81
2023/02/22 08:30:18;;;;;;;9.15;5.05;;;;;;;;;;5036196;28;20049;-80
2023/02/22 08:32:45;;;;;;;8.50;5.20;;;;;;;;;;5037938;28;20035;-81
2023/02/22 08:35:12;;;;;;;11.38;5.78;;;;;;;;;;5035964;28;20387;-79
2023/02/22 08:37:41;;;;;;;9.73;4.63;;;;;;;;;;5035376;28;20159;-80
2023/02/22 08:40:07;;;;;;;7.50;4.97;;;;;;;;;;5049930;28;20034;-82
2023/02/22 08:42:33;;;;;;;11.40;5.55;;;;;;;;;;5037246;28;20056;-81
2023/02/22 08:44:59;;;;;;;8.32;4.80;;;;;;;;;;5035692;28;20068;-81
2023/02/22 08:47:25;;;;;;;11.95;5.63;;;;;;;;;;5038372;28;20509;-79
2023/02/22 08:49:51;;;;;;;8.02;4.53;;;;;;;;;;5036461;28;20033;-80
2023/02/22 08:52:17;;;;;;;10.73;5.30;;;;;;;;;;5040455;28;20017;-81
2023/02/22 08:54:45;;;;;;;11.65;5.60;;;;;;;;;;5057472;28;20032;-81
2023/02/22 08:57:11;;;;;;;8.93;5.32;;;;;;;;;;5048147;28;20541;-80
2023/02/22 08:59:37;;;;;;;9.73;5.05;;;;;;;;;;5042513;28;20040;-82
2023/02/22 09:02:04;;;;;;;7.38;4.65;;;;;;;;;;5056487;28;20074;-80
2023/02/22 09:04:30;;;;;;;8.98;4.90;;;;;;;;;;5037578;28;20491;-80
2023/02/22 09:06:56;;;;;;;9.90;5.13;;;;;;;;;;5046051;28;20060;-79
2023/02/22 09:09:22;;;;;;;11.05;4.90;;;;;;;;;;5050077;28;20029;-82
2023/02/22 09:11:48;;;;;;;10.18;4.68;;;;;;;;;;5039793;28;20018;-81
2023/02/22 09:14:16;;;;;;;8.25;4.50;;;;;;;;;;5055334;28;20032;-79
2023/02/22 09:16:44;;;;;;;7.18;4.13;;;;;;;;;;5056648;28;20044;-81
2023/02/22 09:19:10;;;;;;;15.98;5.05;;;;;;;;;;5038156;28;20161;-80
2023/02/22 09:21:36;;;;;;;9.13;5.05;;;;;;;;;;5052590;28;20057;-81
2023/02/22 09:24:07;;;;;;;11.30;4.65;;;;;;;;;;5055845;28;20482;-81
2023/02/22 09:26:33;;;;;;;13.45;5.03;;;;;;;;;;5055356;28;20037;-81
2023/02/22 09:28:59;;;;;;;9.32;4.40;;;;;;;;;;5046761;28;20025;-81
2023/02/22 09:31:25;;;;;;;7.35;3.70;;;;;;;;;;5037427;28;20124;-82
2023/02/22 09:33:51;;;;;;;8.10;3.80;;;;;;;;;;5036232;28;20038;-80
2023/02/22 09:36:20;;;;;;;9.80;4.55;;;;;;;;;;5037795;28;20079;-81
2023/02/22 09:38:46;;;;;;;9.73;4.07;;;;;;;;;;5038341;28;20014;-81
2023/02/22 09:41:12;;;;;;;7.70;3.78;;;;;;;;;;5038301;28;20027;-80
2023/02/22 09:43:39;;;;;;;10.48;4.78;;;;;;;;;;5037857;28;20446;-81
2023/02/22 09:46:05;;;;;;;8.65;4.47;;;;;;;;;;5036689;28;20040;-79
2023/02/22 09:48:33;;;;;;;9.25;5.25;;;;;;;;;;5036155;28;20483;-80
2023/02/22 09:51:01;;;;;;;7.88;5.10;;;;;;;;;;5049868;28;20029;-81
2023/02/22 09:53:31;;;;;;;9.77;4.75;;;;;;;;;;5057039;28;20074;-81
2023/02/22 09:56:00;;;;;;;9.85;5.55;;;;;;;;;;5023477;28;20033;-81
2023/02/22 09:58:32;;;;;;;11.02;5.15;;;;;;;;;;5033164;28;20029;-81
2023/02/22 10:01:04;;;;;;;7.97;4.68;;;;;;;;;;5037545;28;20033;-83
2023/02/22 10:03:48;;;;;;;9.90;5.72;;;;;;;;;;5035938;28;20118;-81
2023/02/22 10:06:16;;;;;;;7.47;5.00;;;;;;;;;;5038987;28;20041;-81
2023/02/22 10:08:43;;;;;;;9.27;4.60;;;;;;;;;;5037700;28;20048;-82
2023/02/22 10:11:28;;;;;;;8.63;4.93;;;;;;;;;;5037209;28;20029;-82
2023/02/22 10:14:00;;;;;;;8.13;4.50;;;;;;;;;;5037635;28;20030;-79
2023/02/22 10:16:41;;;;;;;7.60;4.80;;;;;;;;;;5040208;28;20313;-80
2023/02/22 10:19:12;;;;;;;10.40;5.63;;;;;;;;;;5036555;28;20108;-80
2023/02/22 10:21:43;;;;;;;10.07;5.47;;;;;;;;;;5038853;28;20021;-81
2023/02/22 10:24:37;;;;;;;8.57;5.80;;;;;;;;;;5034677;28;20048;-79
2023/02/22 10:27:04;;;;;;;7.95;4.13;;;;;;;;;;5032621;28;20029;-79
2023/02/22 10:29:39;;;;;;;8.85;4.68;;;;;;;;;;5033680;28;20025;-80
2023/02/22 10:32:06;;;;;;;9.25;5.63;;;;;;;;;;5037323;28;20047;-80
2023/02/22 10:34:39;;;;;;;8.32;4.88;;;;;;;;;;5039613;28;20064;-80
2023/02/22 10:37:17;;;;;;;7.90;4.25;;;;;;;;;;5040456;28;20040;-81
2023/02/22 10:39:44;;;;;;;7.18;4.65;;;;;;;;;;5034365;28;20017;-80
2023/02/22 10:42:10;;;;;;;8.63;4.30;;;;;;;;;;5045496;28;20363;-80
2023/02/22 10:44:37;;;;;;;7.43;4.10;;;;;;;;;;5035696;28;20025;-80
2023/02/22 10:47:04;;;;;;;7.05;3.85;;;;;;;;;;5026202;28;20399;-80
2023/02/22 10:49:41;;;;;;;8.48;4.28;;;;;;;;;;5032345;28;20116;-80
2023/02/22 10:52:32;;;;;;;7.03;4.05;;;;;;;;;;5027527;28;20463;-80
2023/02/22 10:54:59;;;;;;;7.85;4.35;;;;;;;;;;5025435;28;20041;-81
2023/02/22 10:57:26;;;;;;;6.10;3.92;;;;;;;;;;5033099;28;20032;-79
2023/02/22 10:59:55;;;;;;;7.20;4.18;;;;;;;;;;5033523;28;20034;-80
2023/02/22 11:02:29;;;;;;;7.88;4.70;;;;;;;;;;5033282;28;20070;-82
2023/02/22 11:04:56;;;;;;;6.93;3.92;;;;;;;;;;5032951;28;20025;-80
2023/02/22 11:07:23;;;;;;;6.88;4.00;;;;;;;;;;5032188;28;20423;-81
2023/02/22 11:09:51;;;;;;;11.40;4.35;;;;;;;;;;5034129;28;20029;-80
2023/02/22 11:12:18;;;;;;;8.23;4.40;;;;;;;;;;5033756;28;20017;-79
2023/02/22 11:14:44;;;;;;;7.03;4.00;;;;;;;;;;5034888;28;20032;-82
2023/02/22 11:17:13;;;;;;;6.30;3.90;;;;;;;;;;5034676;28;20017;-80
2023/02/22 11:19:45;;;;;;;6.78;3.88;;;;;;;;;;5033848;28;20030;-79
2023/02/22 11:22:16;;;;;;;7.60;4.23;;;;;;;;;;5033944;28;20034;-81
2023/02/22 11:24:53;;;;;;;6.22;3.60;;;;;;;;;;5034309;28;20030;-82
2023/02/22 11:27:31;;;;;;;7.22;3.83;;;;;;;;;;5035591;28;20372;-80
2023/02/22 11:30:06;;;;;;;7.97;3.90;;;;;;;;;;5036047;28;20017;-81
2023/02/22 11:32:32;;;;;;;7.03;4.13;;;;;;;;;;5034325;28;20094;-80
2023/02/22 11:35:17;;;;;;;6.43;3.45;;;;;;;;;;5034721;28;20025;-80
2023/02/22 11:37:43;;;;;;;6.13;3.55;;;;;;;;;;5038012;28;20036;-80
2023/02/22 11:40:18;;;;;;;7.30;3.72;;;;;;;;;;5038461;28;20140;-80
2023/02/22 11:42:45;;;;;;;9.50;3.20;;;;;;;;;;5037839;28;20045;-81
2023/02/22 11:45:11;;;;;;;6.28;3.72;;;;;;;;;;5038757;28;20028;-81
2023/02/22 11:47:46;;;;;;;7.30;3.22;;;;;;;;;;5037066;28;20038;-81
2023/02/22 11:50:36;;;;;;;5.95;3.70;;;;;;;;;;5039785;28;20030;-80
2023/02/22 11:53:14;;;;;;;5.85;3.25;;;;;;;;;;5032495;28;20515;-81
2023/02/22 11:55:43;;;;;;;5.90;3.30;;;;;;;;;;5034509;28;20403;-78
2023/02/22 11:58:28;;;;;;;6.20;3.35;;;;;;;;;;5038211;28;20067;-82
2023/02/22 12:01:16;;;;;;;5.55;2.80;;;;;;;;;;5037099;28;20109;-80
2023/02/22 12:04:02;;;;;;;5.60;2.90;;;;;;;;;;5044140;28;20399;-80
2023/02/22 12:06:43;;;;;;;7.10;2.63;;;;;;;;;;5036581;28;20117;-80
2023/02/22 12:09:09;;;;;;;7.35;2.90;;;;;;;;;;5038294;28;20030;-80
2023/02/22 12:11:49;;;;;;;5.65;2.40;;;;;;;;;;5037087;28;20033;-81
2023/02/22 12:14:30;;;;;;;6.68;2.90;;;;;;;;;;5037994;28;20037;-82
2023/02/22 12:17:07;;;;;;;5.57;2.63;;;;;;;;;;5029286;28;20538;-81
2023/02/22 12:19:37;;;;;;;5.35;2.50;;;;;;;;;;5031572;28;20060;-80
2023/02/22 12:22:10;;;;;;;5.00;2.65;;;;;;;;;;5036891;28;20100;-80
2023/02/22 12:27:43;;;;;;;5.75;3.00;;;;;;;;;;5037829;28;20060;-80
2023/02/22 12:30:31;;;;;;;7.10;3.10;;;;;;;;;;5040483;28;20021;-79
2023/02/22 12:32:59;;;;;;;5.93;3.25;;;;;;;;;;5035699;28;20033;-81
2023/02/22 12:35:36;;;;;;;5.22;2.78;;;;;;;;;;5031346;28;21129;-81
2023/02/22 12:38:23;;;;;;;6.28;3.08;;;;;;;;;;5034983;28;20033;-81
2023/02/22 12:40:56;;;;;;;5.60;3.22;;;;;;;;;;5041549;28;20034;-81
2023/02/22 12:43:22;;;;;;;5.95;2.35;;;;;;;;;;5041340;28;20394;-80
2023/02/22 12:45:49;;;;;;;5.93;2.97;;;;;;;;;;5036666;28;20034;-79
2023/02/22 12:48:30;;;;;;;6.85;2.97;;;;;;;;;;5035482;28;20025;-81
2023/02/22 12:51:03;;;;;;;5.22;2.55;;;;;;;;;;5035061;28;20033;-81
2023/02/22 12:53:35;;;;;;;5.03;2.08;;;;;;;;;;5037305;28;20034;-82
2023/02/22 12:56:14;;;;;;;5.30;2.60;;;;;;;;;;5037104;28;20116;-80
2023/02/22 12:59:01;;;;;;;4.75;1.92;;;;;;;;;;5034724;28;20079;-80
2023/02/22 13:01:32;;;;;;;4.60;2.70;;;;;;;;;;5028189;28;20099;-81
2023/02/22 13:03:58;;;;;;;6.68;2.75;;;;;;;;;;5018859;28;20025;-81
2023/02/22 13:06:36;;;;;;;4.95;2.45;;;;;;;;;;5032348;28;20108;-81
2023/02/22 13:09:23;;;;;;;5.72;2.72;;;;;;;;;;5034412;28;20125;-81
2023/02/22 13:11:52;;;;;;;5.13;2.42;;;;;;;;;;5043849;28;20029;-78
2023/02/22 13:14:33;;;;;;;6.25;2.50;;;;;;;;;;5034600;28;20032;-79
2023/02/22 13:17:19;;;;;;;4.78;2.28;;;;;;;;;;5036900;28;20181;-80
2023/02/22 13:20:17;;;;;;;5.03;3.00;;;;;;;;;;5015009;28;20091;-81
2023/02/22 13:22:49;;;;;;;4.95;2.80;;;;;;;;;;5004941;28;20448;-81
2023/02/22 13:25:20;;;;;;;4.82;2.58;;;;;;;;;;4995035;28;20117;-80
2023/02/22 13:27:46;;;;;;;4.70;2.20;;;;;;;;;;4997171;28;20404;-82
2023/02/22 13:30:17;;;;;;;5.05;2.70;;;;;;;;;;5010958;28;20587;-82
2023/02/22 13:32:44;;;;;;;8.23;3.25;;;;;;;;;;5011336;28;20125;-81
2023/02/22 13:35:28;;;;;;;5.20;2.42;;;;;;;;;;4993851;28;20037;-81
2023/02/22 13:38:14;;;;;;;7.20;2.80;;;;;;;;;;4996038;28;20034;-81
2023/02/22 13:40:40;;;;;;;5.35;2.60;;;;;;;;;;4973142;28;20630;-80
2023/02/22 13:43:15;;;;;;;7.22;3.08;;;;;;;;;;4995063;28;20049;-80
2023/02/22 13:45:50;;;;;;;5.50;2.70;;;;;;;;;;4991422;28;20037;-82
2023/02/22 13:48:18;;;;;;;4.72;2.33;;;;;;;;;;4994963;28;20109;-81
2023/02/22 13:50:44;;;;;;;4.45;2.25;;;;;;;;;;5011540;28;20028;-79
2023/02/22 13:53:31;;;;;;;7.03;2.88;;;;;;;;;;4994456;28;20650;-81
2023/02/22 13:55:59;;;;;;;6.55;2.47;;;;;;;;;;5003402;28;20033;-79
2023/02/22 13:58:25;;;;;;;5.30;2.55;;;;;;;;;;5001469;28;20037;-82
2023/02/22 14:00:55;;;;;;;6.82;3.28;;;;;;;;;;5035847;28;20033;-81
2023/02/22 14:03:22;;;;;;;5.93;2.72;;;;;;;;;;5033192;28;20107;-81
2023/02/22 14:05:54;;;;;;;5.95;2.55;;;;;;;;;;5031258;28;20107;-80
2023/02/22 14:08:20;;;;;;;5.22;2.47;;;;;;;;;;5055329;28;20025;-79
2023/02/22 14:10:51;;;;;;;6.60;2.60;;;;;;;;;;5017503;28;20400;-80
2023/02/22 14:13:19;;;;;;;7.82;2.65;;;;;;;;;;5033453;28;20072;-79
2023/02/22 14:15:58;;;;;;;7.13;2.70;;;;;;;;;;5027109;28;20021;-81
2023/02/22 14:18:26;;;;;;;5.78;2.72;;;;;;;;;;5022832;28;20029;-82
2023/02/22 14:21:11;;;;;;;5.53;2.55;;;;;;;;;;5033299;28;20029;-80
2023/02/22 14:23:37;;;;;;;5.65;2.67;;;;;;;;;;5032882;28;20087;-79
2023/02/22 14:26:29;;;;;;;5.80;2.65;;;;;;;;;;5032646;28;20029;-80
2023/02/22 14:29:01;;;;;;;5.47;2.80;;;;;;;;;;5042887;28;20443;-80
2023/02/22 14:31:29;;;;;;;6.20;2.90;;;;;;;;;;5021165;28;20737;-80
2023/02/22 14:34:00;;;;;;;7.90;3.15;;;;;;;;;;5034120;28;20037;-80
2023/02/22 14:36:29;;;;;;;6.32;2.90;;;;;;;;;;5029994;28;20065;-81
2023/02/22 14:38:59;;;;;;;5.97;2.83;;;;;;;;;;5040502;28;20037;-79
2023/02/22 14:41:27;;;;;;;6.15;2.88;;;;;;;;;;5009014;28;20021;-80
2023/02/22 14:43:55;;;;;;;6.63;2.80;;;;;;;;;;5028093;28;20483;-80
2023/02/22 14:46:23;;;;;;;6.30;3.03;;;;;;;;;;5030930;28;20042;-80
2023/02/22 14:48:51;;;;;;;3.95;1.80;;;;;;;;;;5028785;28;20032;-81
2023/02/22 14:51:33;;;;;;;5.82;2.15;;;;;;;;;;5028493;28;20415;-78
2023/02/22 14:54:05;;;;;;;5.68;1.95;;;;;;;;;;5025964;28;20029;-80
2023/02/22 14:56:50;;;;;;;5.60;2.05;;;;;;;;;;5031534;28;20032;-79
2023/02/22 14:59:24;;;;;;;6.10;1.65;;;;;;;;;;5030789;28;20044;-78
2023/02/22 15:02:03;;;;;;;5.45;1.90;;;;;;;;;;5029912;28;20021;-79